sensor_id;sensor_type;location;lat;lon;timestamp;pressure;altitude;pressure_sealevel;temperature;humidity
19751;BME280;4663;49.120;9.730;2023-05-27T00:00:21;98822.91;;;13.61;70.93
19751;BME280;4663;49.120;9.730;2023-05-27T00:02:46;98817.47;;;13.53;72.08
19751;BME280;4663;49.120;9.730;2023-05-27T00:05:12;98817.66;;;13.86;71.72
19751;BME280;4663;49.120;9.730;2023-05-27T00:07:37;98831.19;;;13.95;72.34
19751;BME280;4663;49.120;9.730;2023-05-27T00:10:03;98816.34;;;13.99;70.13
19751;BME280;4663;49.120;9.730;2023-05-27T00:12:28;98820.16;;;14.15;69.37
19751;BME280;4663;49.120;9.730;2023-05-27T00:14:53;98821.50;;;14.19;69.26
19751;BME280;4663;49.120;9.730;2023-05-27T00:17:19;98831.59;;;14.08;69.94
19751;BME280;4663;49.120;9.730;2023-05-27T00:19:46;98823.69;;;14.15;69.92
19751;BME280;4663;49.120;9.730;2023-05-27T00:22:13;98828.91;;;13.47;71.98
19751;BME280;4663;49.120;9.730;2023-05-27T00:24:38;98822.47;;;13.40;72.27
19751;BME280;4663;49.120;9.730;2023-05-27T00:27:05;98821.09;;;13.35;73.04
19751;BME280;4663;49.120;9.730;2023-05-27T00:29:31;98816.84;;;13.59;71.83
19751;BME280;4663;49.120;9.730;2023-05-27T00:31:56;98822.84;;;13.18;72.63
19751;BME280;4663;49.120;9.730;2023-05-27T00:34:21;98824.44;;;13.56;72.63
19751;BME280;4663;49.120;9.730;2023-05-27T00:36:47;98817.72;;;13.33;71.99
19751;BME280;4663;49.120;9.730;2023-05-27T00:39:12;98813.75;;;13.46;71.73
19751;BME280;4663;49.120;9.730;2023-05-27T00:41:38;98815.56;;;13.72;70.83
19751;BME280;4663;49.120;9.730;2023-05-27T00:44:03;98812.84;;;13.64;71.51
19751;BME280;4663;49.120;9.730;2023-05-27T00:46:29;98814.03;;;13.69;71.67
19751;BME280;4663;49.120;9.730;2023-05-27T00:48:55;98807.44;;;13.64;71.17
19751;BME280;4663;49.120;9.730;2023-05-27T00:51:20;98815.28;;;13.48;72.16
19751;BME280;4663;49.120;9.730;2023-05-27T00:53:46;98812.22;;;13.43;73.61
19751;BME280;4663;49.120;9.730;2023-05-27T00:56:12;98802.91;;;13.38;72.49
19751;BME280;4663;49.120;9.730;2023-05-27T00:58:41;98800.88;;;13.31;72.47
19751;BME280;4663;49.120;9.730;2023-05-27T01:01:07;98805.56;;;13.29;73.50
19751;BME280;4663;49.120;9.730;2023-05-27T01:03:33;98800.88;;;13.31;74.07
19751;BME280;4663;49.120;9.730;2023-05-27T01:06:16;98801.50;;;13.25;73.13
19751;BME280;4663;49.120;9.730;2023-05-27T01:08:59;98807.53;;;13.19;74.11
19751;BME280;4663;49.120;9.730;2023-05-27T01:11:33;98805.34;;;12.78;75.27
19751;BME280;4663;49.120;9.730;2023-05-27T01:14:05;98798.03;;;12.88;75.34
19751;BME280;4663;49.120;9.730;2023-05-27T01:16:33;98791.94;;;13.04;73.40
19751;BME280;4663;49.120;9.730;2023-05-27T01:19:02;98804.38;;;12.87;74.84
19751;BME280;4663;49.120;9.730;2023-05-27T01:21:30;98796.09;;;12.80;74.78
19751;BME280;4663;49.120;9.730;2023-05-27T01:24:03;98799.09;;;12.59;75.52
19751;BME280;4663;49.120;9.730;2023-05-27T01:26:28;98787.34;;;12.78;74.76
19751;BME280;4663;49.120;9.730;2023-05-27T01:28:54;98787.59;;;12.49;75.70
19751;BME280;4663;49.120;9.730;2023-05-27T01:31:22;98791.75;;;12.61;75.94
19751;BME280;4663;49.120;9.730;2023-05-27T01:34:01;98787.75;;;12.47;75.69
19751;BME280;4663;49.120;9.730;2023-05-27T01:36:30;98791.25;;;12.48;76.48
19751;BME280;4663;49.120;9.730;2023-05-27T01:38:57;98792.34;;;12.55;76.20
19751;BME280;4663;49.120;9.730;2023-05-27T01:41:24;98787.13;;;12.35;75.84
19751;BME280;4663;49.120;9.730;2023-05-27T01:43:51;98789.03;;;12.25;76.53
19751;BME280;4663;49.120;9.730;2023-05-27T01:46:18;98786.75;;;12.48;75.45
19751;BME280;4663;49.120;9.730;2023-05-27T01:48:43;98784.50;;;12.62;75.04
19751;BME280;4663;49.120;9.730;2023-05-27T01:51:09;98787.03;;;12.27;75.92
19751;BME280;4663;49.120;9.730;2023-05-27T01:53:35;98786.81;;;12.38;76.12
19751;BME280;4663;49.120;9.730;2023-05-27T01:56:00;98781.59;;;12.37;75.78
19751;BME280;4663;49.120;9.730;2023-05-27T01:58:26;98776.91;;;12.39;75.12
19751;BME280;4663;49.120;9.730;2023-05-27T02:00:52;98775.81;;;12.31;74.91
19751;BME280;4663;49.120;9.730;2023-05-27T02:03:17;98779.88;;;12.17;75.42
19751;BME280;4663;49.120;9.730;2023-05-27T02:05:43;98782.72;;;12.16;76.00
19751;BME280;4663;49.120;9.730;2023-05-27T02:08:09;98772.97;;;12.15;76.12
19751;BME280;4663;49.120;9.730;2023-05-27T02:10:35;98769.06;;;12.27;76.03
19751;BME280;4663;49.120;9.730;2023-05-27T02:13:00;98761.34;;;12.14;74.85
19751;BME280;4663;49.120;9.730;2023-05-27T02:15:25;98770.69;;;11.92;75.35
19751;BME280;4663;49.120;9.730;2023-05-27T02:17:51;98764.41;;;12.01;76.20
19751;BME280;4663;49.120;9.730;2023-05-27T02:20:23;98758.56;;;11.88;76.84
19751;BME280;4663;49.120;9.730;2023-05-27T02:22:50;98766.22;;;11.82;76.77
19751;BME280;4663;49.120;9.730;2023-05-27T02:25:15;98774.69;;;11.88;77.94
19751;BME280;4663;49.120;9.730;2023-05-27T02:27:41;98764.53;;;11.81;76.78
19751;BME280;4663;49.120;9.730;2023-05-27T02:30:16;98771.59;;;11.73;77.63
19751;BME280;4663;49.120;9.730;2023-05-27T02:32:42;98780.13;;;11.78;78.10
19751;BME280;4663;49.120;9.730;2023-05-27T02:35:07;98770.09;;;11.98;77.05
19751;BME280;4663;49.120;9.730;2023-05-27T02:37:34;98775.66;;;11.87;77.35
19751;BME280;4663;49.120;9.730;2023-05-27T02:39:59;98771.00;;;11.89;76.82
19751;BME280;4663;49.120;9.730;2023-05-27T02:42:24;98769.91;;;11.81;77.40
19751;BME280;4663;49.120;9.730;2023-05-27T02:44:50;98765.53;;;11.80;76.42
19751;BME280;4663;49.120;9.730;2023-05-27T02:47:15;98765.09;;;11.85;76.81
19751;BME280;4663;49.120;9.730;2023-05-27T02:49:40;98761.41;;;11.76;76.43
19751;BME280;4663;49.120;9.730;2023-05-27T02:52:06;98764.38;;;11.45;79.08
19751;BME280;4663;49.120;9.730;2023-05-27T02:54:31;98771.69;;;11.53;77.70
19751;BME280;4663;49.120;9.730;2023-05-27T02:56:57;98769.72;;;11.17;79.04
19751;BME280;4663;49.120;9.730;2023-05-27T02:59:22;98775.19;;;11.25;79.82
19751;BME280;4663;49.120;9.730;2023-05-27T03:01:47;98773.75;;;11.41;78.94
19751;BME280;4663;49.120;9.730;2023-05-27T03:04:13;98770.38;;;11.29;79.70
19751;BME280;4663;49.120;9.730;2023-05-27T03:06:38;98768.38;;;11.41;79.95
19751;BME280;4663;49.120;9.730;2023-05-27T03:09:04;98779.28;;;11.29;80.54
19751;BME280;4663;49.120;9.730;2023-05-27T03:11:29;98769.84;;;11.25;80.35
19751;BME280;4663;49.120;9.730;2023-05-27T03:13:55;98775.50;;;11.12;80.44
19751;BME280;4663;49.120;9.730;2023-05-27T03:16:20;98775.47;;;11.32;80.98
19751;BME280;4663;49.120;9.730;2023-05-27T03:18:48;98771.84;;;11.23;80.28
19751;BME280;4663;49.120;9.730;2023-05-27T03:21:13;98774.22;;;11.16;80.79
19751;BME280;4663;49.120;9.730;2023-05-27T03:23:38;98778.72;;;11.36;79.15
19751;BME280;4663;49.120;9.730;2023-05-27T03:26:04;98779.16;;;11.31;79.85
19751;BME280;4663;49.120;9.730;2023-05-27T03:28:29;98782.09;;;11.38;80.08
19751;BME280;4663;49.120;9.730;2023-05-27T03:30:55;98785.66;;;11.28;80.52
19751;BME280;4663;49.120;9.730;2023-05-27T03:33:24;98780.28;;;11.28;79.92
19751;BME280;4663;49.120;9.730;2023-05-27T03:35:50;98781.44;;;11.26;79.71
19751;BME280;4663;49.120;9.730;2023-05-27T03:38:15;98775.84;;;10.99;81.29
19751;BME280;4663;49.120;9.730;2023-05-27T03:40:41;98780.75;;;11.04;81.14
19751;BME280;4663;49.120;9.730;2023-05-27T03:43:06;98777.31;;;10.74;81.81
19751;BME280;4663;49.120;9.730;2023-05-27T03:45:31;98768.88;;;11.07;80.78
19751;BME280;4663;49.120;9.730;2023-05-27T03:47:57;98762.44;;;10.99;79.90
19751;BME280;4663;49.120;9.730;2023-05-27T03:50:22;98767.16;;;11.25;79.69
19751;BME280;4663;49.120;9.730;2023-05-27T03:52:48;98768.03;;;11.16;79.89
19751;BME280;4663;49.120;9.730;2023-05-27T03:55:13;98771.22;;;11.29;80.14
19751;BME280;4663;49.120;9.730;2023-05-27T03:57:39;98776.06;;;11.26;80.16
19751;BME280;4663;49.120;9.730;2023-05-27T04:00:05;98770.88;;;11.14;79.43
19751;BME280;4663;49.120;9.730;2023-05-27T04:02:33;98775.91;;;11.27;80.13
19751;BME280;4663;49.120;9.730;2023-05-27T04:04:59;98775.63;;;11.59;80.39
19751;BME280;4663;49.120;9.730;2023-05-27T04:07:25;98775.19;;;11.63;79.16
19751;BME280;4663;49.120;9.730;2023-05-27T04:09:52;98777.16;;;11.71;79.77
19751;BME280;4663;49.120;9.730;2023-05-27T04:12:18;98774.75;;;12.24;77.00
19751;BME280;4663;49.120;9.730;2023-05-27T04:14:43;98769.13;;;12.36;76.55
19751;BME280;4663;49.120;9.730;2023-05-27T04:17:09;98777.13;;;12.27;78.05
19751;BME280;4663;49.120;9.730;2023-05-27T04:19:34;98767.28;;;12.72;75.98
19751;BME280;4663;49.120;9.730;2023-05-27T04:22:00;98769.94;;;12.91;76.55
19751;BME280;4663;49.120;9.730;2023-05-27T04:24:25;98765.84;;;13.31;74.83
19751;BME280;4663;49.120;9.730;2023-05-27T04:26:51;98771.31;;;13.48;74.71
19751;BME280;4663;49.120;9.730;2023-05-27T04:29:16;98771.19;;;12.96;76.27
19751;BME280;4663;49.120;9.730;2023-05-27T04:31:41;98766.38;;;13.08;76.01
19751;BME280;4663;49.120;9.730;2023-05-27T04:34:07;98759.72;;;13.21;74.31
19751;BME280;4663;49.120;9.730;2023-05-27T04:36:33;98752.84;;;13.27;71.94
19751;BME280;4663;49.120;9.730;2023-05-27T04:38:59;98773.28;;;13.72;74.43
19751;BME280;4663;49.120;9.730;2023-05-27T04:41:27;98778.66;;;14.16;74.03
19751;BME280;4663;49.120;9.730;2023-05-27T04:43:54;98764.69;;;14.20;72.75
19751;BME280;4663;49.120;9.730;2023-05-27T04:46:19;98775.56;;;13.94;74.65
19751;BME280;4663;49.120;9.730;2023-05-27T04:48:46;98771.28;;;14.18;73.61
19751;BME280;4663;49.120;9.730;2023-05-27T04:51:11;98762.88;;;14.71;72.46
19751;BME280;4663;49.120;9.730;2023-05-27T04:53:41;98752.41;;;14.68;69.26
19751;BME280;4663;49.120;9.730;2023-05-27T04:56:06;98757.63;;;14.61;67.23
19751;BME280;4663;49.120;9.730;2023-05-27T04:58:33;98744.63;;;15.14;66.78
19751;BME280;4663;49.120;9.730;2023-05-27T05:00:59;98762.81;;;15.37;67.60
19751;BME280;4663;49.120;9.730;2023-05-27T05:03:25;98768.88;;;15.39;68.92
19751;BME280;4663;49.120;9.730;2023-05-27T05:06:04;98747.00;;;15.09;65.43
19751;BME280;4663;49.120;9.730;2023-05-27T05:08:30;98771.28;;;14.93;68.88
19751;BME280;4663;49.120;9.730;2023-05-27T05:10:57;98769.59;;;15.08;67.32
19751;BME280;4663;49.120;9.730;2023-05-27T05:13:22;98754.78;;;14.46;65.21
19751;BME280;4663;49.120;9.730;2023-05-27T05:15:47;98765.56;;;14.79;66.49
19751;BME280;4663;49.120;9.730;2023-05-27T05:18:13;98750.88;;;14.73;66.80
19751;BME280;4663;49.120;9.730;2023-05-27T05:20:39;98748.03;;;14.42;65.33
19751;BME280;4663;49.120;9.730;2023-05-27T05:23:04;98757.31;;;14.56;65.80
19751;BME280;4663;49.120;9.730;2023-05-27T05:25:32;98761.66;;;14.98;65.01
19751;BME280;4663;49.120;9.730;2023-05-27T05:28:03;98762.50;;;15.15;64.91
19751;BME280;4663;49.120;9.730;2023-05-27T05:30:29;98772.97;;;15.19;66.34
19751;BME280;4663;49.120;9.730;2023-05-27T05:32:55;98750.94;;;15.47;63.14
19751;BME280;4663;49.120;9.730;2023-05-27T05:35:20;98769.22;;;15.36;64.35
19751;BME280;4663;49.120;9.730;2023-05-27T05:37:45;98755.03;;;15.83;62.36
19751;BME280;4663;49.120;9.730;2023-05-27T05:40:11;98771.91;;;15.85;63.32
19751;BME280;4663;49.120;9.730;2023-05-27T05:42:36;98769.72;;;15.80;62.82
19751;BME280;4663;49.120;9.730;2023-05-27T05:45:03;98771.28;;;15.83;63.54
19751;BME280;4663;49.120;9.730;2023-05-27T05:47:28;98768.00;;;15.87;63.80
19751;BME280;4663;49.120;9.730;2023-05-27T05:49:54;98763.00;;;15.76;62.08
19751;BME280;4663;49.120;9.730;2023-05-27T05:52:19;98766.63;;;16.55;62.52
19751;BME280;4663;49.120;9.730;2023-05-27T05:54:44;98760.06;;;16.26;61.27
19751;BME280;4663;49.120;9.730;2023-05-27T05:57:10;98760.19;;;16.01;61.94
19751;BME280;4663;49.120;9.730;2023-05-27T05:59:35;98756.69;;;15.92;61.00
19751;BME280;4663;49.120;9.730;2023-05-27T06:02:00;98760.50;;;16.06;61.40
19751;BME280;4663;49.120;9.730;2023-05-27T06:04:26;98758.13;;;16.58;61.18
19751;BME280;4663;49.120;9.730;2023-05-27T06:06:51;98747.09;;;16.83;60.04
19751;BME280;4663;49.120;9.730;2023-05-27T06:09:17;98748.41;;;17.26;59.05
19751;BME280;4663;49.120;9.730;2023-05-27T06:11:42;98771.16;;;17.01;60.97
19751;BME280;4663;49.120;9.730;2023-05-27T06:14:08;98748.94;;;17.21;58.98
19751;BME280;4663;49.120;9.730;2023-05-27T06:16:33;98763.63;;;17.27;58.64
19751;BME280;4663;49.120;9.730;2023-05-27T06:19:01;98769.53;;;17.60;59.42
19751;BME280;4663;49.120;9.730;2023-05-27T06:21:27;98753.97;;;17.84;57.81
19751;BME280;4663;49.120;9.730;2023-05-27T06:23:54;98760.34;;;17.46;58.58
19751;BME280;4663;49.120;9.730;2023-05-27T06:26:20;98758.22;;;17.57;58.83
19751;BME280;4663;49.120;9.730;2023-05-27T06:28:46;98764.56;;;17.34;58.69
19751;BME280;4663;49.120;9.730;2023-05-27T06:31:11;98755.41;;;17.95;58.10
19751;BME280;4663;49.120;9.730;2023-05-27T06:33:37;98777.38;;;18.01;59.21
19751;BME280;4663;49.120;9.730;2023-05-27T06:36:05;98745.84;;;17.99;57.19
19751;BME280;4663;49.120;9.730;2023-05-27T06:38:31;98760.72;;;18.25;58.57
19751;BME280;4663;49.120;9.730;2023-05-27T06:40:56;98756.22;;;18.55;57.77
19751;BME280;4663;49.120;9.730;2023-05-27T06:43:21;98739.13;;;18.61;55.98
19751;BME280;4663;49.120;9.730;2023-05-27T06:45:47;98754.53;;;18.32;57.16
19751;BME280;4663;49.120;9.730;2023-05-27T06:48:12;98750.47;;;18.43;56.96
19751;BME280;4663;49.120;9.730;2023-05-27T06:50:38;98760.00;;;18.60;57.24
19751;BME280;4663;49.120;9.730;2023-05-27T06:53:03;98753.88;;;18.30;57.34
19751;BME280;4663;49.120;9.730;2023-05-27T06:55:28;98731.50;;;18.71;55.27
19751;BME280;4663;49.120;9.730;2023-05-27T06:57:54;98762.94;;;18.81;57.10
19751;BME280;4663;49.120;9.730;2023-05-27T07:00:19;98767.41;;;18.88;56.83
19751;BME280;4663;49.120;9.730;2023-05-27T07:02:45;98767.66;;;18.50;57.39
19751;BME280;4663;49.120;9.730;2023-05-27T07:05:10;98750.78;;;18.76;56.41
19751;BME280;4663;49.120;9.730;2023-05-27T07:07:35;98748.03;;;19.27;55.87
19751;BME280;4663;49.120;9.730;2023-05-27T07:10:01;98748.41;;;18.88;56.30
19751;BME280;4663;49.120;9.730;2023-05-27T07:12:26;98755.13;;;18.93;57.50
19751;BME280;4663;49.120;9.730;2023-05-27T07:14:52;98756.44;;;19.04;57.17
19751;BME280;4663;49.120;9.730;2023-05-27T07:17:17;98742.88;;;18.82;56.49
19751;BME280;4663;49.120;9.730;2023-05-27T07:19:42;98762.66;;;20.03;56.83
19751;BME280;4663;49.120;9.730;2023-05-27T07:22:08;98743.13;;;19.93;55.11
19751;BME280;4663;49.120;9.730;2023-05-27T07:24:33;98756.06;;;20.40;56.40
19751;BME280;4663;49.120;9.730;2023-05-27T07:26:58;98716.22;;;21.27;52.83
19751;BME280;4663;49.120;9.730;2023-05-27T07:29:24;98760.31;;;20.63;56.46
19751;BME280;4663;49.120;9.730;2023-05-27T07:31:50;98718.53;;;21.03;53.27
19751;BME280;4663;49.120;9.730;2023-05-27T07:34:15;98721.81;;;19.97;54.24
19751;BME280;4663;49.120;9.730;2023-05-27T07:36:41;98748.78;;;20.74;55.32
19751;BME280;4663;49.120;9.730;2023-05-27T07:39:06;98721.63;;;22.06;51.98
19751;BME280;4663;49.120;9.730;2023-05-27T07:41:31;98711.84;;;21.05;52.44
19751;BME280;4663;49.120;9.730;2023-05-27T07:43:58;98725.13;;;21.68;53.39
19751;BME280;4663;49.120;9.730;2023-05-27T07:46:23;98707.03;;;20.80;52.97
19751;BME280;4663;49.120;9.730;2023-05-27T07:48:49;98738.94;;;20.80;55.61
19751;BME280;4663;49.120;9.730;2023-05-27T07:51:14;98733.25;;;20.75;54.23
19751;BME280;4663;49.120;9.730;2023-05-27T07:53:40;98718.13;;;21.13;53.47
19751;BME280;4663;49.120;9.730;2023-05-27T07:56:05;98718.09;;;21.40;53.07
19751;BME280;4663;49.120;9.730;2023-05-27T07:58:31;98718.75;;;21.28;52.87
19751;BME280;4663;49.120;9.730;2023-05-27T08:00:56;98728.44;;;21.77;52.66
19751;BME280;4663;49.120;9.730;2023-05-27T08:03:22;98720.25;;;21.77;52.43
19751;BME280;4663;49.120;9.730;2023-05-27T08:05:47;98721.16;;;21.64;52.92
19751;BME280;4663;49.120;9.730;2023-05-27T08:08:13;98708.28;;;21.25;52.65
19751;BME280;4663;49.120;9.730;2023-05-27T08:10:38;98725.25;;;22.32;53.11
19751;BME280;4663;49.120;9.730;2023-05-27T08:13:04;98698.97;;;22.64;50.91
19751;BME280;4663;49.120;9.730;2023-05-27T08:15:30;98716.53;;;22.17;52.43
19751;BME280;4663;49.120;9.730;2023-05-27T08:17:55;98695.31;;;21.66;52.19
19751;BME280;4663;49.120;9.730;2023-05-27T08:20:21;98706.66;;;21.70;53.26
19751;BME280;4663;49.120;9.730;2023-05-27T08:22:46;98691.47;;;21.88;52.02
19751;BME280;4663;49.120;9.730;2023-05-27T08:25:11;98689.50;;;21.56;51.87
19751;BME280;4663;49.120;9.730;2023-05-27T08:27:51;98709.28;;;21.38;53.53
19751;BME280;4663;49.120;9.730;2023-05-27T08:30:17;98693.50;;;22.31;51.92
19751;BME280;4663;49.120;9.730;2023-05-27T08:32:43;98696.00;;;22.91;51.89
19751;BME280;4663;49.120;9.730;2023-05-27T08:35:10;98693.72;;;22.30;52.77
19751;BME280;4663;49.120;9.730;2023-05-27T08:37:37;98691.56;;;22.39;51.63
19751;BME280;4663;49.120;9.730;2023-05-27T08:40:03;98685.84;;;22.15;51.45
19751;BME280;4663;49.120;9.730;2023-05-27T08:42:35;98692.78;;;21.71;53.29
19751;BME280;4663;49.120;9.730;2023-05-27T08:45:01;98698.78;;;21.94;53.29
19751;BME280;4663;49.120;9.730;2023-05-27T08:47:29;98699.09;;;23.57;53.08
19751;BME280;4663;49.120;9.730;2023-05-27T08:49:58;98647.25;;;23.06;49.53
19751;BME280;4663;49.120;9.730;2023-05-27T08:52:24;98693.69;;;22.37;53.17
19751;BME280;4663;49.120;9.730;2023-05-27T08:54:52;98677.56;;;22.54;50.92
19751;BME280;4663;49.120;9.730;2023-05-27T08:57:20;98671.84;;;22.37;51.81
19751;BME280;4663;49.120;9.730;2023-05-27T08:59:50;98662.88;;;22.55;51.61
19751;BME280;4663;49.120;9.730;2023-05-27T09:02:17;98673.19;;;22.20;52.65
19751;BME280;4663;49.120;9.730;2023-05-27T09:04:45;98669.47;;;22.40;52.76
19751;BME280;4663;49.120;9.730;2023-05-27T09:07:11;98666.69;;;22.47;51.86
19751;BME280;4663;49.120;9.730;2023-05-27T09:09:38;98651.88;;;23.24;50.82
19751;BME280;4663;49.120;9.730;2023-05-27T09:12:05;98666.91;;;22.45;51.87
19751;BME280;4663;49.120;9.730;2023-05-27T09:14:31;98656.06;;;23.08;51.46
19751;BME280;4663;49.120;9.730;2023-05-27T09:17:04;98652.34;;;23.03;50.93
19751;BME280;4663;49.120;9.730;2023-05-27T09:19:30;98676.00;;;23.34;52.50
19751;BME280;4663;49.120;9.730;2023-05-27T09:21:55;98666.22;;;25.33;50.29
19751;BME280;4663;49.120;9.730;2023-05-27T09:24:24;98643.63;;;25.55;48.12
19751;BME280;4663;49.120;9.730;2023-05-27T09:26:51;98643.13;;;24.81;48.81
19751;BME280;4663;49.120;9.730;2023-05-27T09:29:18;98635.19;;;24.25;49.25
19751;BME280;4663;49.120;9.730;2023-05-27T09:31:44;98630.22;;;23.23;49.71
19751;BME280;4663;49.120;9.730;2023-05-27T09:34:16;98639.44;;;22.66;51.35
19751;BME280;4663;49.120;9.730;2023-05-27T09:36:47;98657.25;;;22.94;52.42
19751;BME280;4663;49.120;9.730;2023-05-27T09:39:14;98648.22;;;22.93;51.68
19751;BME280;4663;49.120;9.730;2023-05-27T09:41:40;98635.72;;;23.42;50.79
19751;BME280;4663;49.120;9.730;2023-05-27T09:44:06;98638.13;;;23.12;51.68
19751;BME280;4663;49.120;9.730;2023-05-27T09:46:33;98642.56;;;23.82;50.28
19751;BME280;4663;49.120;9.730;2023-05-27T09:49:00;98646.44;;;23.74;51.43
19751;BME280;4663;49.120;9.730;2023-05-27T09:51:26;98637.78;;;23.77;51.19
19751;BME280;4663;49.120;9.730;2023-05-27T09:53:53;98643.03;;;23.79;51.42
19751;BME280;4663;49.120;9.730;2023-05-27T09:56:23;98611.00;;;24.10;49.28
19751;BME280;4663;49.120;9.730;2023-05-27T09:58:48;98635.03;;;24.08;50.95
19751;BME280;4663;49.120;9.730;2023-05-27T10:01:14;98622.78;;;22.93;51.47
19751;BME280;4663;49.120;9.730;2023-05-27T10:03:43;98623.22;;;24.74;50.77
19751;BME280;4663;49.120;9.730;2023-05-27T10:06:12;98620.81;;;23.99;50.58
19751;BME280;4663;49.120;9.730;2023-05-27T10:08:38;98608.38;;;23.84;50.56
19751;BME280;4663;49.120;9.730;2023-05-27T10:11:04;98633.81;;;23.42;53.23
19751;BME280;4663;49.120;9.730;2023-05-27T10:13:30;98616.69;;;24.08;50.85
19751;BME280;4663;49.120;9.730;2023-05-27T10:15:55;98598.00;;;23.74;49.34
19751;BME280;4663;49.120;9.730;2023-05-27T10:18:26;98613.44;;;23.19;51.63
19751;BME280;4663;49.120;9.730;2023-05-27T10:20:52;98624.88;;;22.91;52.94
19751;BME280;4663;49.120;9.730;2023-05-27T10:23:25;98613.28;;;23.14;51.50
19751;BME280;4663;49.120;9.730;2023-05-27T10:28:35;98600.69;;;23.62;50.55
19751;BME280;4663;49.120;9.730;2023-05-27T10:33:37;98595.03;;;24.31;49.58
19751;BME280;4663;49.120;9.730;2023-05-27T10:36:24;98592.31;;;23.88;50.28
19751;BME280;4663;49.120;9.730;2023-05-27T10:38:58;98608.56;;;23.71;51.80
19751;BME280;4663;49.120;9.730;2023-05-27T10:41:23;98593.13;;;23.76;50.96
19751;BME280;4663;49.120;9.730;2023-05-27T10:43:56;98579.41;;;23.76;50.06
19751;BME280;4663;49.120;9.730;2023-05-27T10:46:22;98578.88;;;23.56;49.70
19751;BME280;4663;49.120;9.730;2023-05-27T10:48:47;98579.22;;;23.47;50.16
19751;BME280;4663;49.120;9.730;2023-05-27T10:51:13;98577.88;;;23.38;50.33
19751;BME280;4663;49.120;9.730;2023-05-27T10:53:38;98576.66;;;22.52;51.36
19751;BME280;4663;49.120;9.730;2023-05-27T10:56:04;98569.03;;;22.61;50.01
19751;BME280;4663;49.120;9.730;2023-05-27T10:58:33;98555.81;;;22.14;49.84
19751;BME280;4663;49.120;9.730;2023-05-27T11:01:01;98578.91;;;22.62;51.61
19751;BME280;4663;49.120;9.730;2023-05-27T11:03:28;98563.88;;;22.27;50.79
19751;BME280;4663;49.120;9.730;2023-05-27T11:05:57;98582.22;;;22.20;52.27
19751;BME280;4663;49.120;9.730;2023-05-27T11:08:23;98555.78;;;22.65;49.19
19751;BME280;4663;49.120;9.730;2023-05-27T11:10:49;98552.53;;;22.49;49.22
19751;BME280;4663;49.120;9.730;2023-05-27T11:13:14;98567.53;;;22.84;49.06
19751;BME280;4663;49.120;9.730;2023-05-27T11:15:40;98543.97;;;23.02;47.71
19751;BME280;4663;49.120;9.730;2023-05-27T11:18:07;98538.00;;;22.93;47.91
19751;BME280;4663;49.120;9.730;2023-05-27T11:20:35;98547.44;;;22.53;48.57
19751;BME280;4663;49.120;9.730;2023-05-27T11:23:00;98551.41;;;23.62;48.28
19751;BME280;4663;49.120;9.730;2023-05-27T11:25:26;98531.91;;;23.71;47.21
19751;BME280;4663;49.120;9.730;2023-05-27T11:27:51;98535.75;;;23.20;47.54
19751;BME280;4663;49.120;9.730;2023-05-27T11:30:17;98535.03;;;23.86;48.00
19751;BME280;4663;49.120;9.730;2023-05-27T11:32:42;98526.63;;;23.27;47.21
19751;BME280;4663;49.120;9.730;2023-05-27T11:35:28;98539.31;;;22.90;48.75
19751;BME280;4663;49.120;9.730;2023-05-27T11:37:53;98519.22;;;22.96;47.51
19751;BME280;4663;49.120;9.730;2023-05-27T11:40:19;98524.00;;;22.64;48.66
19751;BME280;4663;49.120;9.730;2023-05-27T11:42:45;98519.69;;;23.43;47.51
19751;BME280;4663;49.120;9.730;2023-05-27T11:45:19;98507.03;;;23.60;46.61
19751;BME280;4663;49.120;9.730;2023-05-27T11:47:45;98502.34;;;23.18;47.11
19751;BME280;4663;49.120;9.730;2023-05-27T11:50:14;98494.56;;;22.66;46.79
19751;BME280;4663;49.120;9.730;2023-05-27T11:52:53;98486.06;;;22.30;47.12
19751;BME280;4663;49.120;9.730;2023-05-27T11:55:19;98476.25;;;22.47;45.32
19751;BME280;4663;49.120;9.730;2023-05-27T11:57:44;98499.28;;;23.27;47.02
19751;BME280;4663;49.120;9.730;2023-05-27T12:00:10;98482.66;;;23.09;46.17
19751;BME280;4663;49.120;9.730;2023-05-27T12:02:36;98452.19;;;22.75;44.26
19751;BME280;4663;49.120;9.730;2023-05-27T12:05:02;98480.72;;;22.98;45.41
19751;BME280;4663;49.120;9.730;2023-05-27T12:07:27;98461.13;;;23.13;44.01
19751;BME280;4663;49.120;9.730;2023-05-27T12:09:52;98458.06;;;22.91;44.56
19751;BME280;4663;49.120;9.730;2023-05-27T12:12:21;98452.00;;;23.38;44.09
19751;BME280;4663;49.120;9.730;2023-05-27T12:14:46;98469.34;;;22.82;45.88
19751;BME280;4663;49.120;9.730;2023-05-27T12:17:11;98453.16;;;22.81;45.06
19751;BME280;4663;49.120;9.730;2023-05-27T12:19:37;98479.25;;;23.14;46.80
19751;BME280;4663;49.120;9.730;2023-05-27T12:22:02;98469.84;;;23.41;45.55
19751;BME280;4663;49.120;9.730;2023-05-27T12:24:28;98429.94;;;23.02;44.10
19751;BME280;4663;49.120;9.730;2023-05-27T12:26:53;98461.25;;;23.37;46.32
19751;BME280;4663;49.120;9.730;2023-05-27T12:29:18;98447.38;;;23.50;45.88
19751;BME280;4663;49.120;9.730;2023-05-27T12:31:46;98431.16;;;23.06;44.82
19751;BME280;4663;49.120;9.730;2023-05-27T12:34:12;98427.66;;;22.49;45.20
19751;BME280;4663;49.120;9.730;2023-05-27T12:36:38;98429.50;;;23.17;45.21
19751;BME280;4663;49.120;9.730;2023-05-27T12:39:03;98436.78;;;23.54;45.11
19751;BME280;4663;49.120;9.730;2023-05-27T12:41:30;98423.69;;;23.56;45.20
19751;BME280;4663;49.120;9.730;2023-05-27T12:43:55;98438.03;;;24.18;45.33
19751;BME280;4663;49.120;9.730;2023-05-27T12:46:20;98419.91;;;23.81;44.56
19751;BME280;4663;49.120;9.730;2023-05-27T12:48:46;98425.25;;;23.76;45.20
19751;BME280;4663;49.120;9.730;2023-05-27T12:51:11;98408.00;;;23.75;44.34
19751;BME280;4663;49.120;9.730;2023-05-27T12:53:37;98430.59;;;23.59;45.87
19751;BME280;4663;49.120;9.730;2023-05-27T12:56:02;98411.31;;;23.54;44.99
19751;BME280;4663;49.120;9.730;2023-05-27T12:58:27;98429.06;;;23.63;45.68
19751;BME280;4663;49.120;9.730;2023-05-27T13:00:53;98395.78;;;24.43;43.20
19751;BME280;4663;49.120;9.730;2023-05-27T13:03:19;98394.09;;;24.01;43.63
19751;BME280;4663;49.120;9.730;2023-05-27T13:05:44;98412.63;;;23.75;45.07
19751;BME280;4663;49.120;9.730;2023-05-27T13:08:10;98375.25;;;23.69;42.53
19751;BME280;4663;49.120;9.730;2023-05-27T13:10:36;98392.97;;;23.42;43.85